Time;durP1;ratioP1;P1;durP2;ratioP2;P2;SDS_P1;SDS_P2;PMS_P1;PMS_P2;Temp;Humidity;BMP_temperature;BMP_pressure;BME280_temperature;BME280_humidity;BME280_pressure;Samples;Min_cycle;Max_cycle;Signal;HPM_P1;HPM_P2
2021/04/30 00:00:39;;;;;;;11.47;8.60;;;7.20;99.90;;;;;;5072102;28;20526;-68
2021/04/30 00:03:05;;;;;;;13.10;7.90;;;7.20;99.90;;;;;;5071990;28;20168;-69
2021/04/30 00:05:32;;;;;;;12.07;7.83;;;7.20;99.90;;;;;;5069517;28;20168;-68
2021/04/30 00:07:59;;;;;;;13.43;7.83;;;7.20;99.90;;;;;;5071888;28;20215;-68
2021/04/30 00:10:25;;;;;;;13.63;8.30;;;7.30;99.90;;;;;;5072138;28;20171;-68
2021/04/30 00:12:52;;;;;;;11.63;7.80;;;7.20;99.90;;;;;;5071674;28;20202;-68
2021/04/30 00:15:18;;;;;;;11.80;7.40;;;7.20;99.90;;;;;;5069748;28;20188;-68
2021/04/30 00:17:44;;;;;;;12.17;7.50;;;7.30;99.90;;;;;;5071161;28;20248;-68
2021/04/30 00:20:11;;;;;;;10.97;8.10;;;7.40;99.90;;;;;;5071693;28;20544;-68
2021/04/30 00:22:37;;;;;;;10.43;7.80;;;7.40;99.90;;;;;;5071761;28;20259;-69
2021/04/30 00:25:03;;;;;;;11.10;8.80;;;7.40;99.90;;;;;;5071294;28;20279;-68
2021/04/30 00:27:29;;;;;;;15.03;8.50;;;7.30;99.90;;;;;;5069662;28;20164;-68
2021/04/30 00:29:55;;;;;;;11.87;8.20;;;7.30;99.90;;;;;;5071817;28;20222;-68
2021/04/30 00:32:20;;;;;;;9.57;7.57;;;7.20;99.90;;;;;;5071387;28;20205;-68
2021/04/30 00:34:47;;;;;;;9.70;8.10;;;7.20;99.90;;;;;;5071748;28;20618;-68
2021/04/30 00:37:13;;;;;;;9.10;7.97;;;7.20;99.90;;;;;;5068967;28;20173;-68
2021/04/30 00:39:39;;;;;;;10.67;7.70;;;7.20;99.90;;;;;;5071888;28;20526;-68
2021/04/30 00:42:06;;;;;;;12.40;8.07;;;7.10;99.90;;;;;;5071349;28;20172;-68
2021/04/30 00:44:32;;;;;;;13.73;8.40;;;7.00;99.90;;;;;;5071458;28;20188;-68
2021/04/30 00:46:58;;;;;;;11.80;8.07;;;6.90;99.90;;;;;;5068803;28;20164;-68
2021/04/30 00:49:24;;;;;;;9.37;8.03;;;6.90;99.90;;;;;;5070822;28;20169;-68
2021/04/30 00:51:50;;;;;;;11.73;8.40;;;7.00;99.90;;;;;;5068037;28;20190;-68
2021/04/30 00:54:17;;;;;;;11.80;8.03;;;7.10;99.90;;;;;;5068311;28;20165;-68
2021/04/30 00:56:43;;;;;;;8.50;7.60;;;7.00;99.90;;;;;;5065352;28;20201;-67
2021/04/30 00:59:09;;;;;;;16.27;8.27;;;7.10;99.90;;;;;;5050394;28;20180;-68
2021/04/30 01:01:35;;;;;;;10.43;8.27;;;7.40;99.90;;;;;;5068263;28;20171;-68
2021/04/30 01:04:01;;;;;;;20.73;9.17;;;7.30;99.90;;;;;;5068127;28;20168;-68
2021/04/30 01:06:27;;;;;;;13.20;9.00;;;7.10;99.90;;;;;;5047619;28;20172;-68
2021/04/30 01:08:53;;;;;;;15.00;9.23;;;7.10;99.90;;;;;;5068112;28;20165;-68
2021/04/30 01:11:19;;;;;;;14.20;9.37;;;6.80;99.90;;;;;;5067932;28;20172;-68
2021/04/30 01:13:44;;;;;;;11.80;8.97;;;6.80;99.90;;;;;;5067889;28;20176;-68
2021/04/30 01:16:10;;;;;;;10.10;8.93;;;6.50;99.90;;;;;;5065375;28;20705;-68
2021/04/30 01:18:40;;;;;;;12.77;9.63;;;6.70;99.90;;;;;;5067915;28;20224;-68
2021/04/30 01:21:06;;;;;;;13.13;9.40;;;6.60;99.90;;;;;;5067810;28;20164;-68
2021/04/30 01:23:33;;;;;;;10.73;9.30;;;6.40;99.90;;;;;;5067752;28;20311;-68
2021/04/30 01:25:58;;;;;;;16.10;9.90;;;6.20;99.90;;;;;;5065031;28;20171;-68
2021/04/30 01:28:24;;;;;;;13.33;9.93;;;6.30;99.90;;;;;;5067545;28;20169;-68
2021/04/30 01:30:50;;;;;;;16.13;10.13;;;6.40;99.90;;;;;;5067699;28;20228;-68
2021/04/30 01:33:18;;;;;;;14.07;9.90;;;6.40;99.90;;;;;;5067409;28;20213;-68
2021/04/30 01:35:44;;;;;;;16.67;10.33;;;6.40;99.90;;;;;;5065097;28;20185;-68
2021/04/30 01:38:10;;;;;;;14.80;10.37;;;6.40;99.90;;;;;;5067297;28;20233;-68
2021/04/30 01:40:36;;;;;;;13.27;10.03;;;6.50;99.90;;;;;;5067732;28;20575;-68
2021/04/30 01:43:14;;;;;;;18.20;9.73;;;6.50;99.90;;;;;;5066927;28;20168;-68
2021/04/30 01:45:54;;;;;;;14.03;10.63;;;6.40;99.90;;;;;;5047004;28;20192;-68
2021/04/30 01:48:28;;;;;;;13.63;10.93;;;6.50;99.90;;;;;;5067075;28;20172;-68
2021/04/30 01:50:55;;;;;;;12.10;10.93;;;6.70;99.90;;;;;;5067318;28;20493;-68
2021/04/30 01:53:23;;;;;;;15.90;10.43;;;6.40;99.90;;;;;;5067269;28;20221;-68
2021/04/30 01:55:49;;;;;;;23.37;12.27;;;6.30;99.90;;;;;;5064524;28;20199;-68
2021/04/30 01:58:18;;;;;;;29.33;13.43;;;6.30;99.90;;;;;;5066619;28;20169;-68
2021/04/30 02:00:44;;;;;;;17.37;13.90;;;6.50;99.90;;;;;;5067218;28;20232;-68
2021/04/30 02:03:10;;;;;;;27.40;13.03;;;6.40;99.90;;;;;;5065804;28;20623;-68
2021/04/30 02:05:36;;;;;;;17.33;11.60;;;6.30;99.90;;;;;;5064572;28;20263;-68
2021/04/30 02:08:05;;;;;;;19.53;12.17;;;6.40;99.90;;;;;;5066747;28;20161;-68
2021/04/30 02:10:32;;;;;;;18.40;12.20;;;6.40;99.90;;;;;;5067007;28;20178;-68
2021/04/30 02:12:58;;;;;;;14.87;11.47;;;6.50;99.90;;;;;;5066545;28;20172;-68
2021/04/30 02:15:27;;;;;;;15.93;11.77;;;6.50;99.90;;;;;;5046558;28;20196;-68
2021/04/30 02:17:52;;;;;;;14.47;12.50;;;6.40;99.90;;;;;;5066729;28;20164;-68
2021/04/30 02:20:20;;;;;;;20.20;12.60;;;6.40;99.90;;;;;;5066884;28;20161;-68
2021/04/30 02:22:46;;;;;;;23.57;15.53;;;6.20;99.90;;;;;;5066718;28;20183;-68
2021/04/30 02:25:14;;;;;;;26.07;16.43;;;6.10;99.90;;;;;;5065060;28;20188;-70
2021/04/30 02:27:40;;;;;;;28.10;18.83;;;6.10;99.90;;;;;;5065378;28;20190;-68
2021/04/30 02:30:07;;;;;;;29.20;22.13;;;6.10;99.90;;;;;;5066629;28;20160;-68
2021/04/30 02:32:33;;;;;;;28.47;17.83;;;6.20;99.90;;;;;;5066339;28;20212;-68
2021/04/30 02:35:00;;;;;;;19.67;15.50;;;6.40;99.90;;;;;;5066530;28;20235;-68
2021/04/30 02:37:26;;;;;;;18.00;14.27;;;6.50;99.90;;;;;;5064147;28;20734;-68
2021/04/30 02:39:52;;;;;;;17.50;12.10;;;6.30;99.90;;;;;;5066575;28;20157;-68
2021/04/30 02:42:18;;;;;;;17.47;13.50;;;6.20;99.90;;;;;;5066020;28;20176;-68
2021/04/30 02:44:44;;;;;;;21.13;13.37;;;6.20;99.90;;;;;;5066330;28;20168;-68
2021/04/30 02:47:10;;;;;;;24.90;12.80;;;6.30;99.90;;;;;;5063301;28;20173;-67
2021/04/30 02:49:41;;;;;;;19.30;12.97;;;6.10;99.90;;;;;;5066127;28;20161;-68
2021/04/30 02:52:08;;;;;;;16.47;13.43;;;6.30;99.90;;;;;;5065948;28;20248;-67
2021/04/30 02:54:34;;;;;;;15.23;13.63;;;6.30;99.90;;;;;;5066216;28;20240;-68
2021/04/30 02:57:00;;;;;;;19.83;12.87;;;6.20;99.90;;;;;;5063089;28;20200;-68
2021/04/30 02:59:26;;;;;;;16.43;13.33;;;6.10;99.90;;;;;;5066287;28;20161;-68
2021/04/30 03:01:52;;;;;;;20.93;13.70;;;5.90;99.90;;;;;;5066130;28;20164;-68
2021/04/30 03:04:18;;;;;;;17.53;14.33;;;5.60;99.90;;;;;;5065931;28;20671;-68
2021/04/30 03:06:43;;;;;;;21.17;13.77;;;5.60;99.90;;;;;;5063241;28;20165;-68
2021/04/30 03:09:09;;;;;;;21.40;15.40;;;5.40;99.90;;;;;;5065832;28;20164;-68
2021/04/30 03:11:34;;;;;;;19.10;14.67;;;5.60;99.90;;;;;;5047760;28;20226;-68
2021/04/30 03:14:00;;;;;;;21.97;15.27;;;5.70;99.90;;;;;;5065140;28;20183;-68
2021/04/30 03:16:26;;;;;;;17.17;14.40;;;5.50;99.90;;;;;;5063155;28;20192;-68
2021/04/30 03:18:51;;;;;;;23.47;15.90;;;5.30;99.90;;;;;;5065713;28;20171;-68
2021/04/30 03:21:17;;;;;;;26.03;16.50;;;5.40;99.90;;;;;;5065783;28;20157;-68
2021/04/30 03:23:42;;;;;;;19.83;14.60;;;5.60;99.90;;;;;;5065672;28;20222;-68
2021/04/30 03:26:08;;;;;;;23.57;16.10;;;5.60;99.90;;;;;;5062949;28;20218;-68
2021/04/30 03:28:34;;;;;;;28.67;18.03;;;5.60;99.90;;;;;;5065252;28;20175;-68
2021/04/30 03:30:59;;;;;;;24.40;17.10;;;5.80;99.90;;;;;;5047463;28;20630;-68
2021/04/30 03:33:25;;;;;;;23.63;17.33;;;5.70;99.90;;;;;;5065623;28;20180;-68
2021/04/30 03:35:51;;;;;;;25.03;18.57;;;5.80;99.90;;;;;;5062890;28;20226;-68
2021/04/30 03:38:16;;;;;;;20.33;18.17;;;5.70;99.90;;;;;;5065252;28;20199;-68
2021/04/30 03:40:42;;;;;;;26.90;18.60;;;5.80;99.90;;;;;;5064790;28;20400;-68
2021/04/30 03:43:08;;;;;;;24.47;18.13;;;5.90;99.90;;;;;;5065028;28;20653;-68
2021/04/30 03:45:33;;;;;;;25.17;17.37;;;5.90;99.90;;;;;;5062730;28;20287;-68
2021/04/30 03:47:59;;;;;;;21.73;16.33;;;5.90;99.90;;;;;;5065274;28;20176;-68
2021/04/30 03:50:24;;;;;;;21.58;17.83;;;6.10;99.90;;;;;;5064611;28;20438;-68
2021/04/30 03:52:50;;;;;;;27.10;17.37;;;6.30;99.90;;;;;;5065225;28;20165;-68
2021/04/30 03:55:16;;;;;;;20.90;16.97;;;6.30;99.90;;;;;;5063339;28;20610;-68
2021/04/30 03:57:42;;;;;;;22.53;15.90;;;6.20;99.90;;;;;;5064311;28;20173;-68
2021/04/30 04:00:08;;;;;;;26.23;16.10;;;6.00;99.90;;;;;;5065280;28;20192;-68
2021/04/30 04:02:33;;;;;;;18.60;15.23;;;6.00;99.90;;;;;;5065083;28;20172;-68
2021/04/30 04:04:59;;;;;;;27.67;16.57;;;6.10;99.90;;;;;;5065033;28;20165;-68
2021/04/30 04:07:25;;;;;;;29.10;17.03;;;5.80;99.90;;;;;;5062697;28;20172;-68
2021/04/30 04:09:50;;;;;;;21.83;16.53;;;5.60;99.90;;;;;;5065401;28;20169;-68
2021/04/30 04:12:16;;;;;;;25.23;17.27;;;5.60;99.90;;;;;;5064871;28;20176;-68
2021/04/30 04:14:43;;;;;;;20.50;16.10;;;5.80;99.90;;;;;;5065298;28;20229;-68
2021/04/30 04:17:08;;;;;;;27.20;17.47;;;5.70;99.90;;;;;;5062223;28;20265;-68
2021/04/30 04:19:34;;;;;;;26.00;18.30;;;5.80;99.90;;;;;;5065059;28;20189;-68
2021/04/30 04:22:00;;;;;;;20.87;17.43;;;5.90;99.90;;;;;;5065087;28;20164;-68
2021/04/30 04:24:26;;;;;;;19.97;16.73;;;5.70;99.90;;;;;;5065210;28;20167;-68
2021/04/30 04:26:51;;;;;;;31.47;17.97;;;5.70;99.90;;;;;;5065584;28;20173;-68
2021/04/30 04:29:17;;;;;;;22.10;18.70;;;5.60;99.90;;;;;;5067912;28;20408;-68
2021/04/30 04:31:43;;;;;;;24.87;17.67;;;5.70;99.90;;;;;;5068696;28;20213;-68
2021/04/30 04:34:08;;;;;;;25.60;18.40;;;5.70;99.90;;;;;;5050657;28;20175;-68
2021/04/30 04:36:34;;;;;;;30.73;18.20;;;5.60;99.90;;;;;;5066131;28;20217;-68
2021/04/30 04:38:59;;;;;;;25.50;20.77;;;5.60;99.90;;;;;;5067432;28;20447;-68
2021/04/30 04:41:26;;;;;;;27.07;19.03;;;5.70;99.90;;;;;;5068799;28;20172;-68
2021/04/30 04:43:51;;;;;;;25.43;17.93;;;5.50;99.90;;;;;;5068135;28;20542;-68
2021/04/30 04:46:17;;;;;;;24.13;19.65;;;5.40;99.90;;;;;;5065676;28;20479;-68
2021/04/30 04:48:43;;;;;;;31.97;18.37;;;5.30;99.90;;;;;;5068152;28;20196;-68
2021/04/30 04:51:08;;;;;;;29.67;20.20;;;5.20;99.90;;;;;;5068178;28;20215;-68
2021/04/30 04:53:34;;;;;;;28.73;19.33;;;5.30;99.90;;;;;;5068338;28;20173;-68
2021/04/30 04:55:59;;;;;;;29.87;19.70;;;5.30;99.90;;;;;;5065481;28;20227;-67
2021/04/30 04:58:25;;;;;;;30.90;20.50;;;5.50;99.90;;;;;;5067806;28;20581;-68
2021/04/30 05:00:51;;;;;;;27.13;19.80;;;5.50;99.90;;;;;;5050412;28;20172;-68
2021/04/30 05:03:16;;;;;;;27.93;19.27;;;5.40;99.90;;;;;;5050208;28;20176;-68
2021/04/30 05:05:42;;;;;;;27.63;20.10;;;5.40;99.90;;;;;;5065700;28;20172;-68
2021/04/30 05:08:08;;;;;;;27.30;19.23;;;5.50;99.90;;;;;;5067694;28;20165;-68
2021/04/30 05:10:33;;;;;;;28.73;20.37;;;5.60;99.90;;;;;;5068030;28;20243;-68
2021/04/30 05:13:00;;;;;;;27.20;20.23;;;5.90;99.90;;;;;;5067348;28;20165;-68
2021/04/30 05:15:26;;;;;;;28.10;21.88;;;6.10;99.90;;;;;;5064519;28;20950;-68
2021/04/30 05:17:51;;;;;;;26.73;19.03;;;6.30;99.90;;;;;;5067659;28;20184;-68
2021/04/30 05:20:17;;;;;;;25.80;18.13;;;6.00;99.90;;;;;;5067588;28;20157;-68
2021/04/30 05:22:44;;;;;;;29.10;18.77;;;6.00;99.90;;;;;;5067711;28;20407;-68
2021/04/30 05:25:11;;;;;;;23.10;19.00;;;6.00;99.90;;;;;;5066363;28;20224;-68
2021/04/30 05:27:43;;;;;;;29.83;19.07;;;6.10;99.90;;;;;;5066033;28;20233;-68
2021/04/30 05:30:10;;;;;;;31.83;18.47;;;6.30;99.90;;;;;;5049667;28;20149;-68
2021/04/30 05:32:36;;;;;;;32.27;19.50;;;6.30;99.90;;;;;;5067394;28;20301;-68
2021/04/30 05:35:03;;;;;;;29.30;18.47;;;6.20;99.90;;;;;;5067098;28;20183;-69
2021/04/30 05:37:31;;;;;;;27.03;18.67;;;6.10;99.90;;;;;;5065187;28;20546;-68
2021/04/30 05:39:58;;;;;;;34.67;19.63;;;6.20;99.90;;;;;;5067479;28;20240;-68
2021/04/30 05:42:24;;;;;;;35.73;21.53;;;6.30;99.90;;;;;;5067262;28;20172;-68
2021/04/30 05:44:51;;;;;;;28.70;19.35;;;6.10;99.90;;;;;;5049395;28;20410;-68
2021/04/30 05:47:16;;;;;;;30.47;19.90;;;6.00;99.90;;;;;;5064515;28;20176;-68
2021/04/30 05:49:42;;;;;;;26.17;19.37;;;6.10;99.90;;;;;;5067260;28;20193;-68
2021/04/30 05:52:08;;;;;;;29.40;19.33;;;6.20;99.90;;;;;;5067377;28;20165;-68
2021/04/30 05:54:33;;;;;;;24.07;19.47;;;6.10;99.90;;;;;;5067225;28;20168;-68
2021/04/30 05:56:59;;;;;;;31.17;19.33;;;6.00;99.90;;;;;;5063974;28;20191;-68
2021/04/30 05:59:25;;;;;;;25.23;19.20;;;6.00;99.90;;;;;;5067192;28;20169;-68
2021/04/30 06:01:50;;;;;;;27.97;19.50;;;6.20;99.90;;;;;;5067062;28;20218;-69
2021/04/30 06:04:16;;;;;;;27.03;18.77;;;6.60;99.90;;;;;;5067006;28;20571;-68
2021/04/30 06:06:43;;;;;;;28.77;19.60;;;6.70;99.90;;;;;;5064264;28;20161;-68
2021/04/30 06:09:09;;;;;;;27.33;19.20;;;6.90;99.90;;;;;;5066568;28;20173;-68
2021/04/30 06:11:35;;;;;;;34.70;19.47;;;7.20;99.90;;;;;;5066828;28;20177;-68
2021/04/30 06:14:00;;;;;;;22.53;17.27;;;7.40;99.90;;;;;;5066311;28;20181;-69
2021/04/30 06:16:26;;;;;;;29.33;17.73;;;7.50;99.90;;;;;;5046368;28;20226;-68
2021/04/30 06:18:51;;;;;;;24.17;17.27;;;7.30;99.90;;;;;;5066674;28;20235;-69
2021/04/30 06:21:17;;;;;;;25.50;15.40;;;7.40;99.90;;;;;;5066623;28;20252;-68
2021/04/30 06:23:43;;;;;;;20.77;15.03;;;7.30;99.90;;;;;;5066167;28;20163;-68
2021/04/30 06:26:08;;;;;;;22.63;15.17;;;7.40;99.90;;;;;;5063886;28;20168;-68
2021/04/30 06:28:34;;;;;;;31.37;16.03;;;7.50;99.90;;;;;;5065944;28;20173;-68
2021/04/30 06:30:59;;;;;;;25.97;17.37;;;7.70;99.90;;;;;;5065970;28;20177;-69
2021/04/30 06:33:25;;;;;;;26.17;16.50;;;8.00;99.90;;;;;;5066366;28;20172;-68
2021/04/30 06:35:51;;;;;;;24.30;16.93;;;8.20;99.90;;;;;;5063754;28;20202;-68
2021/04/30 06:38:16;;;;;;;24.73;16.70;;;8.30;99.90;;;;;;5066117;28;20224;-68
2021/04/30 06:40:42;;;;;;;22.17;16.03;;;8.50;99.90;;;;;;5066081;28;20168;-68
2021/04/30 06:43:08;;;;;;;26.00;16.43;;;8.50;99.90;;;;;;5047399;28;20187;-68
2021/04/30 06:45:34;;;;;;;26.23;16.33;;;8.40;99.90;;;;;;5063489;28;20208;-68
2021/04/30 06:47:59;;;;;;;28.80;17.33;;;8.50;99.90;;;;;;5047092;28;20176;-68
2021/04/30 06:50:25;;;;;;;31.37;16.97;;;8.70;99.90;;;;;;5047805;28;20218;-68
2021/04/30 06:52:52;;;;;;;27.67;17.63;;;8.70;99.90;;;;;;5065728;28;20181;-68
2021/04/30 06:55:18;;;;;;;27.83;16.13;;;9.00;99.90;;;;;;5063506;28;20195;-68
2021/04/30 06:57:44;;;;;;;24.70;17.20;;;8.90;99.90;;;;;;5064874;28;20243;-68
2021/04/30 07:00:10;;;;;;;28.10;17.73;;;8.60;99.90;;;;;;5065001;28;20183;-68
2021/04/30 07:02:36;;;;;;;29.93;17.90;;;8.50;99.90;;;;;;5064931;28;20153;-68
2021/04/30 07:05:03;;;;;;;21.63;16.43;;;8.60;99.90;;;;;;5064372;28;20286;-68
2021/04/30 07:07:29;;;;;;;31.13;19.60;;;8.60;99.90;;;;;;5062430;28;20172;-68
2021/04/30 07:09:54;;;;;;;29.57;17.73;;;8.80;99.90;;;;;;5065116;28;20157;-68
2021/04/30 07:12:20;;;;;;;28.63;18.03;;;8.70;99.90;;;;;;5065220;28;20189;-68
2021/04/30 07:14:46;;;;;;;22.50;17.23;;;8.80;99.90;;;;;;5065272;28;20161;-68
2021/04/30 07:17:12;;;;;;;29.57;16.33;;;8.60;99.90;;;;;;5062233;28;20184;-68
2021/04/30 07:19:38;;;;;;;23.77;16.77;;;8.60;99.90;;;;;;5065462;28;20595;-68
2021/04/30 07:22:09;;;;;;;31.93;17.37;;;8.70;99.90;;;;;;5064972;28;20252;-68
2021/04/30 07:24:34;;;;;;;29.13;16.20;;;8.70;99.90;;;;;;5065305;28;20179;-68
2021/04/30 07:27:00;;;;;;;25.00;16.33;;;8.60;99.90;;;;;;5062461;28;20157;-68
2021/04/30 07:29:26;;;;;;;27.50;16.23;;;8.40;99.90;;;;;;5065309;28;20168;-68
2021/04/30 07:31:55;;;;;;;27.80;17.67;;;8.40;99.90;;;;;;5065330;28;20224;-68
2021/04/30 07:34:20;;;;;;;34.53;17.67;;;8.40;99.90;;;;;;5064760;28;20188;-68
2021/04/30 07:36:46;;;;;;;22.53;16.43;;;8.60;99.90;;;;;;5062496;28;20554;-67
2021/04/30 07:39:11;;;;;;;30.63;16.30;;;8.60;99.90;;;;;;5046516;28;20164;-68
2021/04/30 07:41:37;;;;;;;20.50;14.17;;;8.80;99.90;;;;;;5065148;28;20497;-68
2021/04/30 07:44:03;;;;;;;32.93;14.40;;;9.00;99.90;;;;;;5064710;28;20168;-68
2021/04/30 07:46:28;;;;;;;27.57;15.63;;;9.10;99.90;;;;;;5062698;28;20168;-68
2021/04/30 07:48:54;;;;;;;26.20;14.60;;;9.30;99.90;;;;;;5065067;28;20535;-68
2021/04/30 07:51:20;;;;;;;21.33;14.43;;;9.30;99.90;;;;;;5065403;28;20173;-68
2021/04/30 07:53:45;;;;;;;22.87;14.23;;;9.40;99.90;;;;;;5065157;28;20183;-67
2021/04/30 07:56:12;;;;;;;21.70;13.67;;;9.50;99.90;;;;;;5062466;28;20200;-68
2021/04/30 07:58:38;;;;;;;17.03;12.60;;;9.50;99.90;;;;;;5064683;28;20165;-68
2021/04/30 08:01:03;;;;;;;18.00;11.50;;;9.60;99.90;;;;;;5068952;28;20223;-68
2021/04/30 08:03:29;;;;;;;22.93;12.30;;;9.60;99.90;;;;;;5068920;28;20164;-68
2021/04/30 08:05:55;;;;;;;27.00;12.10;;;9.80;99.90;;;;;;5066833;28;20256;-67
2021/04/30 08:08:21;;;;;;;20.80;12.53;;;10.00;99.90;;;;;;5068848;28;20266;-68
2021/04/30 08:10:47;;;;;;;22.23;12.30;;;10.20;99.90;;;;;;5051039;28;20173;-68
2021/04/30 08:13:13;;;;;;;22.20;14.00;;;10.60;99.90;;;;;;5068334;28;20173;-67
2021/04/30 08:15:39;;;;;;;21.73;14.27;;;10.80;99.90;;;;;;5066313;28;20478;-68
2021/04/30 08:18:05;;;;;;;21.63;14.67;;;10.80;99.90;;;;;;5049808;28;20235;-68
2021/04/30 08:20:31;;;;;;;23.77;12.67;;;11.00;99.90;;;;;;5068805;28;20169;-67
2021/04/30 08:22:57;;;;;;;23.77;12.17;;;11.20;99.90;;;;;;5068932;28;20731;-68
2021/04/30 08:25:23;;;;;;;15.73;11.30;;;11.30;99.90;;;;;;5066573;28;20187;-68
2021/04/30 08:27:49;;;;;;;18.57;11.27;;;11.30;99.90;;;;;;5068659;28;20181;-68
2021/04/30 08:30:15;;;;;;;14.27;11.97;;;11.20;99.90;;;;;;5068624;28;20161;-68
2021/04/30 08:32:40;;;;;;;18.47;10.83;;;11.20;99.90;;;;;;5068401;28;20223;-68
2021/04/30 08:35:06;;;;;;;26.63;11.70;;;11.40;99.90;;;;;;5067687;28;20168;-69
2021/04/30 08:37:32;;;;;;;24.97;11.80;;;11.70;99.90;;;;;;5066961;28;20176;-67
2021/04/30 08:40:00;;;;;;;18.13;11.57;;;11.90;99.90;;;;;;5050335;28;20187;-67
2021/04/30 08:42:27;;;;;;;21.47;11.13;;;11.50;99.90;;;;;;5068260;28;20161;-68
2021/04/30 08:44:53;;;;;;;24.20;13.13;;;11.20;99.90;;;;;;5068581;28;20214;-67
2021/04/30 08:47:20;;;;;;;19.13;12.23;;;11.20;99.90;;;;;;5065689;28;20176;-68
2021/04/30 08:49:47;;;;;;;23.40;13.97;;;11.50;99.90;;;;;;5068302;28;20183;-68
2021/04/30 08:52:16;;;;;;;24.20;13.70;;;11.40;99.90;;;;;;5049923;28;20172;-68
2021/04/30 08:54:42;;;;;;;20.90;11.93;;;11.90;99.90;;;;;;5068082;28;20534;-67
2021/04/30 08:57:10;;;;;;;18.23;10.47;;;11.60;99.90;;;;;;5065001;28;20181;-67
2021/04/30 08:59:36;;;;;;;21.83;9.93;;;11.40;99.90;;;;;;5067364;28;20164;-68
2021/04/30 09:02:02;;;;;;;17.67;9.93;;;11.60;99.90;;;;;;5068144;28;20165;-68
2021/04/30 09:04:31;;;;;;;17.07;10.00;;;11.30;99.90;;;;;;5068081;28;20207;-68
2021/04/30 09:07:11;;;;;;;22.77;10.77;;;10.90;99.90;;;;;;5065172;28;20225;-68
2021/04/30 09:09:54;;;;;;;14.23;9.60;;;10.70;99.90;;;;;;5067950;28;20691;-68
2021/04/30 09:12:22;;;;;;;19.03;11.23;;;10.60;99.90;;;;;;5066609;28;20171;-68
2021/04/30 09:14:48;;;;;;;21.03;10.67;;;10.80;99.90;;;;;;5067897;28;20172;-68
2021/04/30 09:17:15;;;;;;;15.83;10.33;;;11.00;99.90;;;;;;5064740;28;20185;-68
2021/04/30 09:19:47;;;;;;;17.47;10.17;;;11.30;99.90;;;;;;5067659;28;20456;-69
2021/04/30 09:22:37;;;;;;;17.37;10.70;;;11.30;99.90;;;;;;5067571;28;20164;-68
2021/04/30 09:25:05;;;;;;;13.87;9.97;;;11.50;99.90;;;;;;5066754;28;20156;-69
2021/04/30 09:27:42;;;;;;;13.93;9.87;;;11.20;99.90;;;;;;5065052;28;20165;-68
2021/04/30 09:30:26;;;;;;;18.63;10.33;;;11.20;99.90;;;;;;5067008;28;20172;-69
2021/04/30 09:33:10;;;;;;;16.43;9.47;;;11.10;99.90;;;;;;5078540;28;20220;-69
2021/04/30 09:35:41;;;;;;;21.80;9.67;;;10.90;99.90;;;;;;5084840;28;20184;-68
2021/04/30 09:38:26;;;;;;;16.47;9.87;;;10.80;99.90;;;;;;5087157;28;20183;-68
2021/04/30 09:41:08;;;;;;;18.33;9.90;;;10.80;99.90;;;;;;5087492;28;20187;-68
2021/04/30 09:43:49;;;;;;;15.17;10.87;;;11.20;99.90;;;;;;5087079;28;20170;-68
2021/04/30 09:46:44;;;;;;;14.17;10.33;;;11.40;99.90;;;;;;5084640;28;20243;-68
2021/04/30 09:49:15;;;;;;;18.23;9.40;;;11.50;99.90;;;;;;5069186;28;20729;-68
2021/04/30 09:51:52;;;;;;;16.03;9.57;;;11.50;99.90;;;;;;5087035;28;20205;-68
2021/04/30 09:54:23;;;;;;;12.17;9.47;;;11.50;99.90;;;;;;5086704;28;20159;-68
2021/04/30 09:57:01;;;;;;;14.50;9.43;;;11.50;99.90;;;;;;5084172;28;20260;-68
2021/04/30 09:59:26;;;;;;;15.37;9.60;;;11.70;99.90;;;;;;5086211;28;20183;-69
2021/04/30 10:02:12;;;;;;;14.00;9.67;;;12.20;99.90;;;;;;5085586;28;20164;-68
2021/04/30 10:04:42;;;;;;;21.55;9.23;;;12.70;99.90;;;;;;5086757;28;20163;-68
2021/04/30 10:07:07;;;;;;;18.20;9.43;;;12.70;99.90;;;;;;5084161;28;20160;-68
2021/04/30 10:09:34;;;;;;;11.05;8.85;;;13.20;99.90;;;;;;5086540;28;20171;-68
2021/04/30 10:12:24;;;;;;;15.35;9.23;;;13.40;99.90;;;;;;5086755;28;20163;-68
2021/04/30 10:14:51;;;;;;;15.63;9.10;;;13.00;99.90;;;;;;5086781;28;20363;-68
2021/04/30 10:17:17;;;;;;;17.27;10.13;;;12.90;99.90;;;;;;5083730;28;20275;-67
2021/04/30 10:19:47;;;;;;;10.57;9.23;;;13.10;99.90;;;;;;5086602;28;20163;-68
2021/04/30 10:22:22;;;;;;;16.42;9.38;;;13.40;99.90;;;;;;5085862;28;20187;-68
2021/04/30 10:24:56;;;;;;;13.30;9.43;;;13.70;99.90;;;;;;5086225;28;20163;-68
2021/04/30 10:27:43;;;;;;;18.70;9.90;;;14.00;99.90;;;;;;5081821;28;20167;-67
2021/04/30 10:30:45;;;;;;;14.98;10.75;;;13.90;99.90;;;;;;5086294;28;20183;-68
2021/04/30 10:33:26;;;;;;;10.95;9.85;;;13.80;99.90;;;;;;5060945;28;20260;-68
2021/04/30 10:35:58;;;;;;;15.95;10.45;;;13.60;99.90;;;;;;5083660;28;20192;-68
2021/04/30 10:38:30;;;;;;;19.90;11.00;;;13.50;99.90;;;;;;5085822;28;20266;-68
2021/04/30 10:41:09;;;;;;;16.27;11.15;;;13.60;99.90;;;;;;5086529;28;20160;-68
2021/04/30 10:43:35;;;;;;;18.95;12.52;;;13.70;99.90;;;;;;5084432;28;20239;-68
2021/04/30 10:46:01;;;;;;;20.77;12.00;;;13.80;99.90;;;;;;5083293;28;20176;-68
2021/04/30 10:48:27;;;;;;;17.63;10.23;;;13.60;99.90;;;;;;5085833;28;20167;-68
2021/04/30 10:51:06;;;;;;;15.23;10.23;;;13.60;99.90;;;;;;5084706;28;20170;-68
2021/04/30 10:53:31;;;;;;;20.40;10.07;;;14.00;99.90;;;;;;5085989;28;20163;-68
2021/04/30 10:55:57;;;;;;;12.18;9.95;;;14.50;99.90;;;;;;5083139;28;20658;-69
2021/04/30 10:58:33;;;;;;;16.45;9.63;;;14.30;99.90;;;;;;5085264;28;20188;-68
2021/04/30 11:01:23;;;;;;;18.75;10.02;;;14.50;99.90;;;;;;5085354;28;20178;-68
2021/04/30 11:04:07;;;;;;;14.52;10.27;;;14.60;99.90;;;;;;5085685;28;20167;-68
2021/04/30 11:06:34;;;;;;;13.43;10.00;;;14.60;99.90;;;;;;5083192;28;20164;-68
2021/04/30 11:09:05;;;;;;;18.67;10.75;;;14.70;99.90;;;;;;5085460;28;20167;-68
2021/04/30 11:11:43;;;;;;;13.55;10.13;;;15.00;99.90;;;;;;5085625;28;20164;-68
2021/04/30 11:14:28;;;;;;;13.02;9.82;;;14.70;99.90;;;;;;5085259;28;20179;-67
2021/04/30 11:16:55;;;;;;;15.38;10.50;;;14.30;99.90;;;;;;5083081;28;20191;-68
2021/04/30 11:19:26;;;;;;;15.48;9.70;;;14.50;99.90;;;;;;5085367;28;20223;-68
2021/04/30 11:21:55;;;;;;;29.15;10.88;;;14.20;99.90;;;;;;5085634;28;20228;-68
2021/04/30 11:24:41;;;;;;;18.48;9.27;;;14.20;99.90;;;;;;5085509;28;20167;-68
2021/04/30 11:27:19;;;;;;;14.13;9.38;;;13.90;99.90;;;;;;5082893;28;20168;-67
2021/04/30 11:29:45;;;;;;;15.30;9.23;;;13.80;99.90;;;;;;5085561;28;20186;-68
2021/04/30 11:32:21;;;;;;;14.50;7.75;;;13.80;99.90;;;;;;5074375;28;20457;-68
2021/04/30 11:34:54;;;;;;;8.75;7.25;;;13.90;99.90;;;;;;5047206;28;20226;-68
2021/04/30 11:37:21;;;;;;;14.73;7.93;;;14.10;99.90;;;;;;5062639;28;20254;-68
2021/04/30 11:39:48;;;;;;;8.90;7.97;;;13.80;99.90;;;;;;5065386;28;20195;-68
2021/04/30 11:42:14;;;;;;;15.23;8.45;;;13.70;99.90;;;;;;5065009;28;20168;-68
2021/04/30 11:44:41;;;;;;;14.15;9.07;;;14.00;99.90;;;;;;5065326;28;20214;-69
2021/04/30 11:47:10;;;;;;;14.23;8.77;;;13.90;99.90;;;;;;5062685;28;20286;-68
2021/04/30 11:49:38;;;;;;;16.73;8.98;;;14.00;99.90;;;;;;5065103;28;20176;-68
2021/04/30 11:52:06;;;;;;;11.57;8.60;;;14.20;99.90;;;;;;5064527;28;20222;-68
2021/04/30 11:54:34;;;;;;;13.45;7.72;;;14.60;99.90;;;;;;5065173;28;20228;-68
2021/04/30 11:57:09;;;;;;;12.80;7.63;;;14.90;99.90;;;;;;5062260;28;20210;-68
2021/04/30 11:59:37;;;;;;;11.57;7.18;;;14.80;99.90;;;;;;5047033;28;20661;-68
2021/04/30 12:02:08;;;;;;;12.30;7.18;;;14.60;99.90;;;;;;5064836;28;20603;-68
2021/04/30 12:04:54;;;;;;;12.65;7.70;;;14.30;99.90;;;;;;5065101;28;20161;-68
2021/04/30 12:07:23;;;;;;;13.00;7.90;;;14.40;99.90;;;;;;5061774;28;20183;-68
2021/04/30 12:09:49;;;;;;;14.35;7.10;;;14.20;99.90;;;;;;5064179;28;20502;-68
2021/04/30 12:12:23;;;;;;;9.60;6.97;;;14.10;99.90;;;;;;5063981;28;20648;-68
2021/04/30 12:15:05;;;;;;;13.10;7.25;;;14.20;99.90;;;;;;5064841;28;20180;-69
2021/04/30 12:17:32;;;;;;;16.20;7.22;;;14.20;99.90;;;;;;5045139;28;20249;-68
2021/04/30 12:20:04;;;;;;;17.23;7.70;;;14.00;99.90;;;;;;5064763;28;20525;-68
2021/04/30 12:22:30;;;;;;;10.52;6.90;;;13.50;99.90;;;;;;5064618;28;20164;-68
2021/04/30 12:25:23;;;;;;;14.75;8.18;;;13.50;99.90;;;;;;5064601;28;20161;-68
2021/04/30 12:27:50;;;;;;;12.02;8.27;;;13.50;99.90;;;;;;5064362;28;20197;-68
2021/04/30 12:30:31;;;;;;;15.57;7.80;;;13.60;99.90;;;;;;5064583;28;20157;-68
2021/04/30 12:32:58;;;;;;;15.05;8.13;;;13.10;99.90;;;;;;5064454;28;20239;-68
2021/04/30 12:35:24;;;;;;;21.77;7.93;;;13.00;99.90;;;;;;5044438;28;20704;-68
2021/04/30 12:37:51;;;;;;;11.93;6.28;;;12.90;99.90;;;;;;5046836;28;20604;-68
2021/04/30 12:40:24;;;;;;;10.77;6.95;;;12.30;99.90;;;;;;5064408;28;20327;-68